createdAt,value
2019-03-12T00:02:17.640Z,48.27
2019-03-12T00:04:49.193Z,48.26
2019-03-12T00:07:20.851Z,48.28
2019-03-12T00:09:53.820Z,48.09
2019-03-12T00:12:25.295Z,48.07
2019-03-12T00:14:56.742Z,48.00
2019-03-12T00:17:28.195Z,47.93
2019-03-12T00:19:59.753Z,47.82
2019-03-12T00:22:31.304Z,47.61
2019-03-12T00:25:03.059Z,47.58
2019-03-12T00:27:34.516Z,47.52
2019-03-12T00:30:54.605Z,47.39
2019-03-12T00:33:26.056Z,47.21
2019-03-12T00:35:57.506Z,47.10
2019-03-12T00:38:28.964Z,46.99
2019-03-12T00:41:00.414Z,46.99
2019-03-12T00:43:32.585Z,46.97
2019-03-12T00:46:04.238Z,46.87
2019-03-12T00:48:36.819Z,46.83
2019-03-12T00:51:08.367Z,46.89
2019-03-12T00:53:40.027Z,46.75
2019-03-12T00:56:11.580Z,46.73
2019-03-12T00:58:43.031Z,46.67
2019-03-12T01:01:14.444Z,46.49
2019-03-12T01:03:45.628Z,46.49
2019-03-12T01:06:17.079Z,46.42
2019-03-12T01:08:48.735Z,46.35
2019-03-12T01:11:23.670Z,46.40
2019-03-12T01:13:55.121Z,46.37
2019-03-12T01:16:26.473Z,46.31
2019-03-12T01:18:57.920Z,46.30
2019-03-12T01:21:30.197Z,46.23
2019-03-12T01:24:01.746Z,46.07
2019-03-12T01:26:33.299Z,46.13
2019-03-12T01:29:04.750Z,46.22
2019-03-12T01:31:36.400Z,46.15
2019-03-12T01:34:07.555Z,46.04
2019-03-12T01:36:39.005Z,46.00
2019-03-12T01:39:10.461Z,45.96
2019-03-12T01:41:42.420Z,45.87
2019-03-12T01:44:13.975Z,45.84
2019-03-12T01:46:46.346Z,45.88
2019-03-12T01:49:17.799Z,45.92
2019-03-12T01:51:49.252Z,45.91
2019-03-12T01:54:21.522Z,45.87
2019-03-12T01:56:54.901Z,45.80
2019-03-12T01:59:26.986Z,45.69
2019-03-12T02:01:58.648Z,45.72
2019-03-12T02:04:30.196Z,45.66
2019-03-12T02:07:01.754Z,45.66
2019-03-12T02:09:33.200Z,45.64
2019-03-12T02:12:04.760Z,45.61
2019-03-12T02:14:36.314Z,45.58
2019-03-12T02:17:07.863Z,45.54
2019-03-12T02:19:39.122Z,45.61
2019-03-12T02:22:10.769Z,45.53
2019-03-12T02:24:52.154Z,45.55
2019-03-12T02:27:15.620Z,45.53
2019-03-12T02:29:47.172Z,45.47
2019-03-12T02:32:18.633Z,45.40
2019-03-12T02:34:50.485Z,45.39
2019-03-12T02:37:21.938Z,45.45
2019-03-12T02:39:53.391Z,45.42
2019-03-12T02:42:24.844Z,45.40
2019-03-12T02:44:56.295Z,45.39
2019-03-12T02:47:27.847Z,45.38
2019-03-12T02:49:59.502Z,45.46
2019-03-12T02:52:30.649Z,45.46
2019-03-12T02:55:02.405Z,45.42
2019-03-12T02:57:33.647Z,45.49
2019-03-12T03:00:18.318Z,45.50
2019-03-12T03:02:49.874Z,45.34
2019-03-12T03:05:21.425Z,45.35
2019-03-12T03:07:54.534Z,45.36
2019-03-12T03:10:26.276Z,45.32
2019-03-12T03:12:57.828Z,45.29
2019-03-12T03:15:37.482Z,45.27
2019-03-12T03:18:09.033Z,45.26
2019-03-12T03:20:40.476Z,45.18
2019-03-12T03:23:12.029Z,45.17
2019-03-12T03:25:43.481Z,45.14
2019-03-12T03:28:14.837Z,45.17
2019-03-12T03:30:46.694Z,45.19
2019-03-12T03:33:18.045Z,45.19
2019-03-12T03:35:49.698Z,45.09
2019-03-12T03:38:21.255Z,45.13
2019-03-12T03:40:52.908Z,45.01
2019-03-12T03:43:24.467Z,44.95
2019-03-12T03:45:56.122Z,44.93
2019-03-12T03:48:27.679Z,44.90
2019-03-12T03:50:59.243Z,44.93
2019-03-12T03:53:30.786Z,44.90
2019-03-12T03:56:02.133Z,44.83
2019-03-12T03:58:33.181Z,44.76
2019-03-12T04:01:04.730Z,44.63
2019-03-12T04:03:35.884Z,44.59
2019-03-12T04:06:07.318Z,44.58
2019-03-12T04:08:40.315Z,44.59
2019-03-12T04:11:11.462Z,44.56
2019-03-12T04:13:42.809Z,44.66
2019-03-12T04:16:14.251Z,44.61
2019-03-12T04:18:45.712Z,44.67
2019-03-12T04:21:17.265Z,44.55
2019-03-12T04:23:48.724Z,44.49
2019-03-12T04:26:20.164Z,44.54
2019-03-12T04:28:51.314Z,44.50
2019-03-12T04:31:22.764Z,45.28
2019-03-12T04:34:00.052Z,45.63
2019-03-12T04:36:31.510Z,45.44
2019-03-12T04:39:02.948Z,45.31
2019-03-12T04:41:35.775Z,45.03
2019-03-12T04:44:06.882Z,45.01
2019-03-12T04:46:38.233Z,45.02
2019-03-12T04:49:10.108Z,45.18
2019-03-12T04:51:41.855Z,45.20
2019-03-12T04:54:13.510Z,45.18
2019-03-12T04:56:45.884Z,45.13
2019-03-12T04:59:17.335Z,45.06
2019-03-12T05:01:48.684Z,45.05
2019-03-12T05:04:20.419Z,44.96
2019-03-12T05:06:51.430Z,43.94
2019-03-12T05:09:22.545Z,43.57
2019-03-12T05:11:54.146Z,43.31
2019-03-12T05:14:26.773Z,43.23
2019-03-12T05:17:01.185Z,43.87
2019-03-12T05:19:32.681Z,43.93
2019-03-12T05:22:04.087Z,43.88
2019-03-12T05:24:35.123Z,43.81
2019-03-12T05:27:06.688Z,43.76
2019-03-12T05:29:38.083Z,43.66
2019-03-12T05:32:10.202Z,43.94
2019-03-12T05:34:41.451Z,43.87
2019-03-12T05:37:12.712Z,43.70
2019-03-12T05:39:43.849Z,43.56
2019-03-12T05:42:16.623Z,44.26
2019-03-12T05:44:48.691Z,45.02
2019-03-12T05:47:20.100Z,44.93
2019-03-12T05:49:53.051Z,44.97
2019-03-12T05:52:24.271Z,44.75
2019-03-12T05:54:56.034Z,44.36
2019-03-12T05:57:28.199Z,43.98
2019-03-12T06:00:00.533Z,43.90
2019-03-12T06:02:31.926Z,52.37
2019-03-12T06:05:04.095Z,55.07
2019-03-12T06:11:04.451Z,30.23
2019-03-12T06:13:35.632Z,33.49
2019-03-12T06:16:06.863Z,38.95
2019-03-12T06:18:38.056Z,42.89
2019-03-12T06:21:09.122Z,47.05
2019-03-12T06:23:40.632Z,51.04
2019-03-12T06:26:11.739Z,52.98
2019-03-12T06:28:42.816Z,54.89
2019-03-12T06:31:21.319Z,56.49
2019-03-12T06:34:01.489Z,58.26
2019-03-12T06:36:37.169Z,58.77
2019-03-12T06:39:12.841Z,59.32
2019-03-12T06:41:46.584Z,60.70
2019-03-12T06:44:19.154Z,60.50
2019-03-12T06:47:00.674Z,60.31
2019-03-12T06:49:35.967Z,60.88
2019-03-12T06:52:23.361Z,60.50
2019-03-12T06:55:05.197Z,61.87
2019-03-12T06:57:57.651Z,61.67
2019-03-12T07:00:36.717Z,60.54
2019-03-12T07:03:19.926Z,59.30
2019-03-12T07:05:55.585Z,59.25
2019-03-12T07:08:34.496Z,58.57
2019-03-12T07:11:09.997Z,57.77
2019-03-12T07:13:43.447Z,58.17
2019-03-12T07:16:16.102Z,57.25
2019-03-12T07:18:57.658Z,56.46
2019-03-12T07:21:42.294Z,56.01
2019-03-12T07:24:14.933Z,55.07
2019-03-12T07:26:47.660Z,54.38
2019-03-12T07:29:26.089Z,55.00
2019-03-12T07:32:07.799Z,55.38
2019-03-12T07:34:40.547Z,55.38
2019-03-12T07:37:25.363Z,54.67
2019-03-12T07:40:07.086Z,54.61
2019-03-12T07:42:56.452Z,52.70
2019-03-12T07:45:46.524Z,52.89
2019-03-12T07:48:20.556Z,53.60
2019-03-12T07:51:02.308Z,53.61
2019-03-12T07:53:37.747Z,53.44
2019-03-12T07:56:19.329Z,52.47
2019-03-12T07:58:56.539Z,52.85
2019-03-12T08:01:35.328Z,49.58
2019-03-12T08:04:15.363Z,50.07
2019-03-12T08:07:03.277Z,48.68
2019-03-12T08:09:44.995Z,47.83
2019-03-12T08:12:18.544Z,46.88
2019-03-12T08:15:03.558Z,45.96
2019-03-12T08:17:40.838Z,46.33
2019-03-12T08:20:13.588Z,45.11
2019-03-12T08:23:01.869Z,43.82
2019-03-12T08:25:38.370Z,42.82
2019-03-12T08:28:23.249Z,40.37
2019-03-12T08:31:12.539Z,39.55
2019-03-12T08:34:01.868Z,37.42
2019-03-12T08:36:40.302Z,34.88
2019-03-12T08:39:29.732Z,34.62
2019-03-12T08:42:02.646Z,34.49
2019-03-12T08:44:42.538Z,31.43
2019-03-12T08:47:21.557Z,31.43
2019-03-12T08:50:04.842Z,31.72
2019-03-12T08:52:41.786Z,33.96
2019-03-12T08:55:31.942Z,32.89
2019-03-12T08:58:05.107Z,32.80
2019-03-12T09:00:43.567Z,32.10
2019-03-12T09:03:20.795Z,31.86
2019-03-12T09:06:09.772Z,31.20
2019-03-12T09:08:45.161Z,28.96
2019-03-12T09:11:23.487Z,28.17
2019-03-12T09:14:05.189Z,28.42
2019-03-12T09:16:40.820Z,28.04
2019-03-12T09:19:31.569Z,27.56
2019-03-12T09:22:06.899Z,26.75
2019-03-12T09:24:45.621Z,27.56
2019-03-12T09:27:24.199Z,28.52
2019-03-12T09:30:02.416Z,29.32
2019-03-12T09:32:35.228Z,30.72
2019-03-12T09:35:09.911Z,29.94
2019-03-12T09:37:45.539Z,31.72
2019-03-12T09:40:21.293Z,31.08
2019-03-12T09:42:59.383Z,33.48
2019-03-12T09:45:32.076Z,32.09
2019-03-12T09:48:07.672Z,33.16
2019-03-12T09:50:46.393Z,36.16
2019-03-12T09:53:25.024Z,33.81
2019-03-12T09:56:05.027Z,34.15
2019-03-12T09:58:40.731Z,34.33
2019-03-12T10:01:16.827Z,32.12
2019-03-12T10:03:49.576Z,32.67
2019-03-12T10:06:35.123Z,32.17
2019-03-12T10:09:15.533Z,32.17
2019-03-12T10:11:48.296Z,32.85
2019-03-12T10:14:23.903Z,31.72
2019-03-12T10:16:59.559Z,31.72
2019-03-12T10:19:34.822Z,31.26
2019-03-12T10:22:23.808Z,29.26
2019-03-12T10:25:12.703Z,28.74
2019-03-12T10:27:45.550Z,29.65
2019-03-12T10:30:37.492Z,28.58
2019-03-12T10:33:16.394Z,29.77
2019-03-12T10:35:55.850Z,30.99
2019-03-12T10:39:10.887Z,28.77
2019-03-12T10:41:44.657Z,29.90
2019-03-12T10:44:29.140Z,31.67
2019-03-12T10:47:01.829Z,30.44
2019-03-12T10:49:37.702Z,30.10
2019-03-12T10:52:06.691Z,29.65
2019-03-12T10:54:37.762Z,28.97
2019-03-12T10:57:09.965Z,28.77
2019-03-12T10:59:41.075Z,28.64
2019-03-12T11:02:12.142Z,27.99
2019-03-12T11:04:43.194Z,28.09
2019-03-12T11:07:16.733Z,26.92
2019-03-12T11:09:48.440Z,25.53
2019-03-12T11:12:19.608Z,25.79
2019-03-12T11:14:51.553Z,26.33
2019-03-12T11:17:23.605Z,26.82
2019-03-12T11:19:55.533Z,26.26
2019-03-12T11:22:26.679Z,26.21
2019-03-12T11:24:58.270Z,27.05
2019-03-12T18:48:44.756Z,54.20
2019-03-12T18:51:17.214Z,53.51
2019-03-12T18:53:48.625Z,53.34
2019-03-12T18:56:20.741Z,53.23
2019-03-12T18:58:54.725Z,53.01
2019-03-12T19:01:26.306Z,54.83
2019-03-12T19:03:57.729Z,55.71
2019-03-12T19:06:29.085Z,55.05
2019-03-12T19:09:00.920Z,54.64
2019-03-12T19:11:37.513Z,53.53
2019-03-12T19:14:07.619Z,53.72
2019-03-12T19:16:39.666Z,53.76
2019-03-12T19:19:11.259Z,53.53
2019-03-12T19:21:42.627Z,52.89
2019-03-12T19:24:15.017Z,52.97
2019-03-12T19:26:46.335Z,52.89
2019-03-12T19:29:17.827Z,52.27
2019-03-12T19:31:50.731Z,52.37
2019-03-12T19:34:23.955Z,53.65
2019-03-12T19:36:55.338Z,54.98
2019-03-12T19:39:28.243Z,57.28
2019-03-12T19:41:59.780Z,57.32
2019-03-12T19:44:31.272Z,56.85
2019-03-12T19:47:04.562Z,55.43
2019-03-12T19:49:35.521Z,54.83
2019-03-12T19:52:07.175Z,54.85
2019-03-12T19:54:39.314Z,55.61
2019-03-12T19:57:12.327Z,56.22
2019-03-12T19:59:43.912Z,57.01
2019-03-12T20:02:16.572Z,58.55
